createdAt,value
2023-04-26T00:00:46.876Z,99800.59
2023-04-26T00:03:49.665Z,99816.94
2023-04-26T00:06:51.951Z,99803.37
2023-04-26T00:09:54.393Z,99803.97
2023-04-26T00:12:56.518Z,99810.81
2023-04-26T00:15:59.476Z,99811.66
2023-04-26T00:19:02.166Z,99808.19
2023-04-26T00:22:05.522Z,99803.97
2023-04-26T00:25:08.199Z,99811.53
2023-04-26T00:28:10.831Z,99820.31
2023-04-26T00:31:17.364Z,99826.81
2023-04-26T00:34:19.876Z,99822.84
2023-04-26T00:37:23.258Z,99826.94
2023-04-26T00:40:26.181Z,99838.59
2023-04-26T00:43:28.464Z,99844.47
2023-04-26T00:46:31.519Z,99835.00
2023-04-26T00:49:33.830Z,99844.47
2023-04-26T00:52:37.098Z,99849.41
2023-04-26T00:55:39.355Z,99837.75
2023-04-26T00:58:41.997Z,99841.22
2023-04-26T01:01:44.296Z,99838.47
2023-04-26T01:04:48.140Z,99835.56
2023-04-26T01:07:51.072Z,99838.06
2023-04-26T01:10:53.711Z,99848.37
2023-04-26T01:13:57.400Z,99845.00
2023-04-26T01:17:00.145Z,99845.97
2023-04-26T01:20:02.416Z,99855.91
2023-04-26T01:23:04.992Z,99845.69
2023-04-26T01:26:07.749Z,99853.84
2023-04-26T01:29:14.977Z,99861.47
2023-04-26T01:32:17.289Z,99869.66
2023-04-26T01:35:19.777Z,99868.53
2023-04-26T01:38:23.302Z,99876.44
2023-04-26T01:41:25.721Z,99876.91
2023-04-26T01:44:27.919Z,99870.38
2023-04-26T01:47:30.465Z,99876.72
2023-04-26T01:50:33.074Z,99877.69
2023-04-26T01:53:35.615Z,99874.72
2023-04-26T01:56:39.569Z,99890.66
2023-04-26T01:59:42.156Z,99887.75
2023-04-26T02:02:44.749Z,99881.00
2023-04-26T02:05:47.345Z,99892.84
2023-04-26T02:08:49.858Z,99883.22
2023-04-26T02:11:52.352Z,99893.47
2023-04-26T02:14:54.513Z,99901.09
2023-04-26T02:17:57.062Z,99904.19
2023-04-26T02:20:59.277Z,99900.19
2023-04-26T02:24:01.734Z,99899.25
2023-04-26T02:27:06.150Z,99906.44
2023-04-26T02:30:10.381Z,99905.81
2023-04-26T02:33:12.623Z,99912.88
2023-04-26T02:36:15.115Z,99906.66
2023-04-26T02:39:17.319Z,99904.34
2023-04-26T02:42:19.990Z,99913.31
2023-04-26T02:45:22.424Z,99908.97
2023-04-26T02:48:25.036Z,99907.06
2023-04-26T02:51:27.231Z,99915.31
2023-04-26T02:54:29.736Z,99907.50
2023-04-26T02:57:32.729Z,99924.72
2023-04-26T03:00:35.399Z,99931.06
2023-04-26T03:03:37.825Z,99934.53
2023-04-26T03:06:41.118Z,99929.03
2023-04-26T03:09:43.306Z,99931.06
2023-04-26T03:12:45.849Z,99939.41
2023-04-26T03:15:48.235Z,99946.88
2023-04-26T03:18:51.067Z,99955.84
2023-04-26T03:21:53.842Z,99955.00
2023-04-26T03:24:57.020Z,99960.19
2023-04-26T03:28:00.151Z,99962.91
2023-04-26T03:31:03.092Z,99965.66
2023-04-26T03:34:05.521Z,99981.59
2023-04-26T03:37:08.056Z,99978.63
2023-04-26T03:40:12.037Z,99976.00
2023-04-26T03:43:14.651Z,99979.78
2023-04-26T03:46:17.045Z,99982.56
2023-04-26T03:49:21.273Z,99983.28
2023-04-26T03:52:23.724Z,99977.06
2023-04-26T03:55:26.708Z,99981.09
2023-04-26T03:58:28.901Z,99987.94
2023-04-26T04:01:31.825Z,99985.06
2023-04-26T04:04:34.596Z,99990.91
2023-04-26T04:07:37.178Z,99996.47
2023-04-26T04:10:39.903Z,100006.31
2023-04-26T04:13:42.120Z,100010.50
2023-04-26T04:16:44.746Z,100013.56
2023-04-26T04:19:46.993Z,100008.50
2023-04-26T04:22:49.486Z,100010.59
2023-04-26T04:25:52.423Z,100012.50
2023-04-26T04:28:57.290Z,100002.06
2023-04-26T04:31:59.661Z,100027.94
2023-04-26T04:35:03.318Z,100018.97
2023-04-26T04:38:05.643Z,100034.56
2023-04-26T04:41:08.850Z,100030.25
2023-04-26T04:44:11.705Z,100043.63
2023-04-26T04:47:15.271Z,100047.28
2023-04-26T04:50:17.617Z,100049.31
2023-04-26T04:53:20.237Z,100051.25
2023-04-26T04:56:22.595Z,100050.75
2023-04-26T04:59:25.542Z,100071.31
2023-04-26T05:02:28.080Z,100072.66
2023-04-26T05:05:31.124Z,100078.06
2023-04-26T05:08:33.551Z,100080.97
2023-04-26T05:11:36.863Z,100088.25
2023-04-26T05:14:40.803Z,100085.34
2023-04-26T05:17:43.459Z,100086.22
2023-04-26T05:20:46.480Z,100088.50
2023-04-26T05:23:49.350Z,100093.63
2023-04-26T05:26:52.179Z,100085.25
2023-04-26T05:29:55.479Z,100096.41
2023-04-26T05:32:58.015Z,100092.59
2023-04-26T05:36:01.578Z,100095.94
2023-04-26T05:39:06.768Z,100095.00
2023-04-26T05:42:09.926Z,100106.06
2023-04-26T05:45:12.624Z,100100.59
2023-04-26T05:48:16.382Z,100105.22
2023-04-26T05:51:18.644Z,100105.75
2023-04-26T05:54:22.218Z,100109.09
2023-04-26T05:57:24.851Z,100117.25
2023-04-26T06:00:27.495Z,100118.16
2023-04-26T06:03:31.229Z,100121.78
2023-04-26T06:06:33.741Z,100122.56
2023-04-26T06:09:36.312Z,100129.50
2023-04-26T06:12:39.158Z,100127.00
2023-04-26T06:15:44.886Z,100133.31
2023-04-26T06:18:47.287Z,100134.88
2023-04-26T06:21:52.216Z,100142.28
2023-04-26T06:24:55.911Z,100154.44
2023-04-26T06:27:58.876Z,100146.09
2023-04-26T06:31:01.645Z,100155.72
2023-04-26T06:34:05.481Z,100144.59
2023-04-26T06:37:08.265Z,100140.31
2023-04-26T06:40:15.887Z,100152.50
2023-04-26T06:43:18.557Z,100144.59
2023-04-26T06:46:21.656Z,100147.00
2023-04-26T06:49:26.690Z,100143.47
2023-04-26T06:52:29.964Z,100153.41
2023-04-26T06:55:33.833Z,100156.53
2023-04-26T06:58:36.644Z,100146.31
2023-04-26T07:01:38.969Z,100140.34
2023-04-26T07:04:41.818Z,100142.37
2023-04-26T07:07:44.130Z,100143.25
2023-04-26T07:10:47.016Z,100160.66
2023-04-26T07:13:49.461Z,100155.03
2023-04-26T07:16:52.057Z,100145.81
2023-04-26T07:19:55.946Z,100158.31
2023-04-26T07:22:58.642Z,100158.25
2023-04-26T07:26:04.470Z,100159.16
2023-04-26T07:29:07.411Z,100153.25
2023-04-26T07:32:10.040Z,100157.00
2023-04-26T07:35:16.298Z,100163.31
2023-04-26T07:38:19.621Z,100167.56
2023-04-26T07:41:22.122Z,100173.69
2023-04-26T07:44:24.358Z,100177.72
2023-04-26T07:47:26.879Z,100180.09
2023-04-26T07:50:29.072Z,100194.75
2023-04-26T07:53:31.495Z,100181.62
2023-04-26T07:56:33.711Z,100195.81
2023-04-26T07:59:37.439Z,100190.81
2023-04-26T08:02:45.042Z,100192.19
2023-04-26T08:05:48.246Z,100187.91
2023-04-26T08:08:53.724Z,100206.00
2023-04-26T08:11:57.075Z,100201.56
2023-04-26T08:15:03.285Z,100202.63
2023-04-26T08:18:25.980Z,100196.13
2023-04-26T08:21:28.148Z,100200.53
2023-04-26T08:24:30.709Z,100205.28
2023-04-26T08:27:34.392Z,100225.03
2023-04-26T08:30:36.931Z,100222.44
2023-04-26T08:33:39.203Z,100220.75
2023-04-26T08:36:42.140Z,100219.22
2023-04-26T08:39:44.480Z,100210.19
2023-04-26T08:42:47.604Z,100216.00
2023-04-26T08:45:50.912Z,100220.50
2023-04-26T08:49:12.642Z,100224.09
2023-04-26T08:52:23.414Z,100228.53
2023-04-26T08:55:27.004Z,100221.88
2023-04-26T08:58:29.468Z,100228.34
2023-04-26T09:01:34.014Z,100229.19
2023-04-26T09:04:37.258Z,100235.41
2023-04-26T09:07:47.608Z,100231.28
2023-04-26T09:10:49.887Z,100224.19
2023-04-26T09:13:52.639Z,100237.97
2023-04-26T09:16:55.842Z,100231.19
2023-04-26T09:19:59.781Z,100228.97
2023-04-26T09:23:06.611Z,100222.59
2023-04-26T09:26:19.078Z,100233.91
2023-04-26T09:29:21.348Z,100222.03
2023-04-26T09:32:24.771Z,100228.19
2023-04-26T09:35:43.528Z,100224.56
2023-04-26T09:38:45.975Z,100232.97
2023-04-26T09:41:48.089Z,100224.25
2023-04-26T09:44:51.850Z,100240.09
2023-04-26T09:47:55.115Z,100213.59
2023-04-26T09:50:59.033Z,100244.47
2023-04-26T09:54:01.305Z,100223.16
2023-04-26T09:57:03.999Z,100232.56
2023-04-26T10:00:09.278Z,100211.38
2023-04-26T10:03:13.048Z,100217.94
2023-04-26T10:06:16.251Z,100225.19
2023-04-26T10:09:18.629Z,100228.13
2023-04-26T10:12:20.865Z,100215.91
2023-04-26T10:15:23.526Z,100237.50
2023-04-26T10:18:25.852Z,100238.19
2023-04-26T10:21:37.003Z,100227.44
2023-04-26T10:24:39.382Z,100224.84
2023-04-26T10:27:45.128Z,100216.13
2023-04-26T10:30:57.450Z,100224.97
2023-04-26T10:34:19.863Z,100226.63
2023-04-26T10:37:22.422Z,100228.81
2023-04-26T10:40:39.284Z,100226.06
2023-04-26T10:43:42.859Z,100222.03
2023-04-26T10:46:51.740Z,100225.88
2023-04-26T10:50:05.387Z,100228.97
2023-04-26T10:53:08.682Z,100245.09
2023-04-26T10:56:11.155Z,100228.31
2023-04-26T10:59:36.359Z,100220.25
2023-04-26T11:02:52.931Z,100228.66
2023-04-26T11:05:56.196Z,100227.41
2023-04-26T11:09:00.188Z,100230.44
2023-04-26T11:12:16.677Z,100223.37
2023-04-26T11:15:19.761Z,100240.87
2023-04-26T11:18:22.622Z,100237.75
2023-04-26T11:21:26.891Z,100227.59
2023-04-26T11:24:36.629Z,100222.88
2023-04-26T11:27:39.182Z,100219.72
2023-04-26T11:30:41.838Z,100233.13
2023-04-26T11:33:44.010Z,100237.78
2023-04-26T11:36:47.273Z,100233.50
2023-04-26T11:39:51.208Z,100236.66
2023-04-26T11:42:53.717Z,100230.28
2023-04-26T11:46:01.196Z,100227.28
2023-04-26T11:49:04.106Z,100228.56
2023-04-26T11:52:09.620Z,100233.78
2023-04-26T11:55:12.644Z,100231.19
2023-04-26T11:58:15.327Z,100232.44
2023-04-26T12:01:28.667Z,100230.87
2023-04-26T12:04:31.478Z,100239.06
2023-04-26T12:07:37.937Z,100240.75
2023-04-26T12:10:40.516Z,100238.34
2023-04-26T12:13:42.680Z,100233.63
2023-04-26T12:16:46.758Z,100246.81
2023-04-26T12:19:49.892Z,100239.09
2023-04-26T12:23:06.282Z,100233.91
2023-04-26T12:26:12.210Z,100233.53
2023-04-26T12:29:16.063Z,100243.22
2023-04-26T12:32:22.463Z,100242.94
2023-04-26T12:35:25.448Z,100242.06
2023-04-26T12:38:27.767Z,100250.78
2023-04-26T12:41:30.247Z,100250.63
2023-04-26T12:44:32.394Z,100252.88
2023-04-26T12:47:34.946Z,100256.50
2023-04-26T12:50:37.198Z,100253.69
2023-04-26T12:53:40.150Z,100240.47
2023-04-26T12:56:44.384Z,100245.28
2023-04-26T12:59:47.028Z,100269.72
2023-04-26T13:02:49.319Z,100261.31
2023-04-26T13:05:52.345Z,100258.47
2023-04-26T13:08:54.575Z,100265.62
2023-04-26T13:11:57.509Z,100274.94
2023-04-26T13:14:59.790Z,100268.72
2023-04-26T13:18:02.685Z,100270.41
2023-04-26T13:21:05.173Z,100263.13
2023-04-26T13:24:08.126Z,100266.91
2023-04-26T13:27:10.585Z,100267.34
2023-04-26T13:30:13.761Z,100274.19
2023-04-26T13:33:21.298Z,100288.88
2023-04-26T13:36:24.171Z,100298.91
2023-04-26T13:39:28.353Z,100292.41
2023-04-26T13:42:31.916Z,100294.28
2023-04-26T13:45:36.734Z,100287.87
2023-04-26T13:48:39.293Z,100290.38
2023-04-26T13:51:41.789Z,100285.59
2023-04-26T13:54:44.206Z,100283.12
2023-04-26T13:57:46.487Z,100303.66
2023-04-26T14:00:49.055Z,100290.94
2023-04-26T14:03:54.229Z,100303.38
2023-04-26T14:06:58.679Z,100289.56
2023-04-26T14:10:01.336Z,100307.22
2023-04-26T14:13:03.543Z,100293.31
2023-04-26T14:16:06.629Z,100302.91
2023-04-26T14:19:08.877Z,100290.97
2023-04-26T14:22:12.897Z,100289.72
2023-04-26T14:25:15.319Z,100290.56
2023-04-26T14:28:18.055Z,100294.78
2023-04-26T14:31:20.452Z,100295.53
2023-04-26T14:34:23.714Z,100289.31
2023-04-26T14:37:25.851Z,100290.28
2023-04-26T14:40:28.418Z,100293.94
2023-04-26T14:43:30.881Z,100302.47
2023-04-26T14:46:33.416Z,100306.59
2023-04-26T14:49:35.704Z,100302.88
2023-04-26T14:52:38.212Z,100319.31
2023-04-26T14:55:40.446Z,100319.53
2023-04-26T14:58:43.117Z,100304.13
2023-04-26T15:01:45.454Z,100318.13
2023-04-26T15:04:48.408Z,100327.78
2023-04-26T15:07:52.013Z,100328.66
2023-04-26T15:10:54.672Z,100317.28
2023-04-26T15:13:56.978Z,100330.25
2023-04-26T15:16:59.579Z,100328.91
2023-04-26T15:20:02.100Z,100326.00
2023-04-26T15:23:04.653Z,100333.91
2023-04-26T15:26:06.832Z,100327.69
2023-04-26T15:29:09.274Z,100327.44
2023-04-26T15:32:11.544Z,100326.00
2023-04-26T15:35:15.351Z,100324.16
2023-04-26T15:38:18.048Z,100318.72
2023-04-26T15:41:20.549Z,100324.47
2023-04-26T15:44:22.693Z,100325.47
2023-04-26T15:47:25.558Z,100325.97
2023-04-26T15:50:28.437Z,100319.81
2023-04-26T15:53:31.231Z,100317.53
2023-04-26T15:56:33.464Z,100321.19
2023-04-26T15:59:36.397Z,100331.38
2023-04-26T16:02:38.737Z,100337.50
2023-04-26T16:05:41.328Z,100328.28
2023-04-26T16:08:43.574Z,100333.09
2023-04-26T16:11:47.487Z,100334.59
2023-04-26T16:14:51.237Z,100342.72
2023-04-26T16:17:53.916Z,100345.44
2023-04-26T16:21:07.610Z,100338.91
2023-04-26T16:24:11.455Z,100347.34
2023-04-26T16:27:13.640Z,100339.03
2023-04-26T16:30:16.496Z,100336.78
2023-04-26T16:33:21.385Z,100348.38
2023-04-26T16:36:25.628Z,100346.56
2023-04-26T16:39:28.681Z,100350.38
2023-04-26T16:42:31.185Z,100349.78
2023-04-26T16:45:33.351Z,100354.12
2023-04-26T16:48:38.404Z,100361.63
2023-04-26T16:51:42.029Z,100360.78
2023-04-26T16:54:44.514Z,100364.31
2023-04-26T16:57:46.740Z,100365.75
2023-04-26T17:00:49.311Z,100377.22
2023-04-26T17:03:52.192Z,100379.13
2023-04-26T17:06:54.776Z,100384.56
2023-04-26T17:09:57.003Z,100384.53
2023-04-26T17:13:00.572Z,100391.88
2023-04-26T17:16:03.246Z,100397.53
2023-04-26T17:19:06.767Z,100400.41
2023-04-26T17:22:09.114Z,100398.72
2023-04-26T17:25:11.746Z,100401.34
2023-04-26T17:28:14.622Z,100403.13
2023-04-26T17:31:17.177Z,100400.09
2023-04-26T17:34:19.308Z,100399.47
2023-04-26T17:37:21.726Z,100402.91
2023-04-26T17:40:24.145Z,100402.59
2023-04-26T17:43:26.590Z,100411.72
2023-04-26T17:46:28.929Z,100410.34
2023-04-26T17:49:32.049Z,100417.78
2023-04-26T17:52:34.263Z,100418.22
2023-04-26T17:55:37.345Z,100429.16
2023-04-26T17:58:42.218Z,100433.75
2023-04-26T18:01:44.720Z,100439.16
2023-04-26T18:04:47.636Z,100441.91
2023-04-26T18:07:50.457Z,100446.69
2023-04-26T18:10:53.975Z,100443.75
2023-04-26T18:13:56.091Z,100436.34
2023-04-26T18:16:58.632Z,100448.00
2023-04-26T18:20:01.089Z,100451.59
2023-04-26T18:23:03.987Z,100444.59
2023-04-26T18:26:06.180Z,100452.66
2023-04-26T18:29:08.607Z,100454.88
2023-04-26T18:32:10.784Z,100461.88
2023-04-26T18:35:13.364Z,100462.00
2023-04-26T18:38:16.161Z,100464.53
2023-04-26T18:41:18.593Z,100474.69
2023-04-26T18:44:21.087Z,100474.87
2023-04-26T18:47:23.750Z,100485.88
2023-04-26T18:50:26.064Z,100481.94
2023-04-26T18:53:28.746Z,100485.75
2023-04-26T18:56:31.581Z,100496.88
2023-04-26T18:59:34.060Z,100505.00
2023-04-26T19:02:39.973Z,100509.09
2023-04-26T19:05:43.212Z,100498.50
2023-04-26T19:08:45.543Z,100500.22
2023-04-26T19:11:48.043Z,100496.97
2023-04-26T19:14:50.201Z,100501.41
2023-04-26T19:17:52.877Z,100510.09
2023-04-26T19:20:55.145Z,100505.50
2023-04-26T19:23:58.383Z,100510.12
2023-04-26T19:27:00.792Z,100513.97
2023-04-26T19:30:03.401Z,100509.22
2023-04-26T19:33:05.991Z,100504.69
2023-04-26T19:36:09.725Z,100506.50
2023-04-26T19:39:12.076Z,100507.72
2023-04-26T19:42:14.531Z,100510.09
2023-04-26T19:45:20.348Z,100507.72
2023-04-26T19:48:22.952Z,100509.16
2023-04-26T19:51:25.065Z,100513.97
2023-04-26T19:54:27.716Z,100517.00
2023-04-26T19:57:29.851Z,100523.03
2023-04-26T20:00:35.679Z,100524.72
2023-04-26T20:03:39.291Z,100528.41
2023-04-26T20:06:41.922Z,100527.19
2023-04-26T20:09:44.534Z,100524.84
2023-04-26T20:12:47.212Z,100525.69
2023-04-26T20:15:49.794Z,100535.50
2023-04-26T20:18:52.017Z,100537.25
2023-04-26T20:21:56.012Z,100539.16
2023-04-26T20:24:58.299Z,100544.34
2023-04-26T20:28:02.175Z,100537.75
2023-04-26T20:31:04.358Z,100541.06
2023-04-26T20:34:06.879Z,100543.78
2023-04-26T20:37:09.461Z,100545.28
2023-04-26T20:40:12.103Z,100552.06
2023-04-26T20:43:14.716Z,100544.50
2023-04-26T20:46:17.191Z,100545.94
2023-04-26T20:49:19.420Z,100547.69
2023-04-26T20:52:22.071Z,100552.50
2023-04-26T20:55:24.324Z,100554.66
2023-04-26T20:58:26.960Z,100556.03
2023-04-26T21:01:29.151Z,100551.97
2023-04-26T21:04:31.868Z,100560.91
2023-04-26T21:07:34.338Z,100563.75
2023-04-26T21:10:37.209Z,100563.50
2023-04-26T21:13:39.428Z,100573.09
2023-04-26T21:16:41.972Z,100565.78
2023-04-26T21:19:44.523Z,100573.78
2023-04-26T21:22:46.997Z,100577.97
2023-04-26T21:25:49.159Z,100578.84
2023-04-26T21:28:51.574Z,100584.47
2023-04-26T21:31:53.985Z,100589.41
2023-04-26T21:34:56.714Z,100582.72
2023-04-26T21:37:59.099Z,100578.16
2023-04-26T21:41:01.597Z,100583.66
2023-04-26T21:44:04.335Z,100577.91
2023-04-26T21:47:06.997Z,100595.66
2023-04-26T21:50:09.842Z,100597.78
2023-04-26T21:53:12.384Z,100596.41
2023-04-26T21:56:14.854Z,100597.78
2023-04-26T21:59:17.365Z,100598.09
2023-04-26T22:02:19.892Z,100601.16
2023-04-26T22:05:25.708Z,100604.38
2023-04-26T22:08:28.052Z,100603.69
2023-04-26T22:11:30.529Z,100602.84
2023-04-26T22:14:32.812Z,100607.34
2023-04-26T22:17:35.994Z,100612.44
2023-04-26T22:20:38.627Z,100609.56
2023-04-26T22:23:41.346Z,100613.81
2023-04-26T22:26:43.546Z,100617.38
2023-04-26T22:29:45.992Z,100618.47
2023-04-26T22:32:52.738Z,100622.81
2023-04-26T22:35:58.170Z,100626.13
2023-04-26T22:39:00.455Z,100632.00
2023-04-26T22:42:03.092Z,100627.59
2023-04-26T22:45:06.728Z,100630.37
2023-04-26T22:48:09.267Z,100630.37
2023-04-26T22:51:11.599Z,100622.56
2023-04-26T22:54:14.055Z,100625.38
2023-04-26T22:57:18.634Z,100633.34
2023-04-26T23:00:22.073Z,100627.84
2023-04-26T23:03:24.817Z,100635.94
2023-04-26T23:06:28.067Z,100633.22
2023-04-26T23:09:30.394Z,100635.50
2023-04-26T23:12:33.375Z,100636.19
2023-04-26T23:15:35.603Z,100638.16
2023-04-26T23:18:38.036Z,100649.28
2023-04-26T23:21:40.199Z,100658.22
2023-04-26T23:24:42.828Z,100653.50
2023-04-26T23:27:46.062Z,100660.72
2023-04-26T23:30:48.678Z,100657.41
2023-04-26T23:33:50.893Z,100659.97
2023-04-26T23:36:53.355Z,100664.31
2023-04-26T23:39:55.746Z,100666.53
2023-04-26T23:42:58.241Z,100663.44
2023-04-26T23:46:00.553Z,100667.47
2023-04-26T23:49:03.114Z,100671.53
2023-04-26T23:52:05.321Z,100668.44
2023-04-26T23:55:08.248Z,100673.69
2023-04-26T23:58:10.431Z,100670.06
